GLR725 CYZU-CEG4
Flight info
| Callsign | GLR725 |
|---|---|
| Flight time | 1h 4m |
| Altitude | 27000 |
| Route | YRM DCT RODKU |
| Aircraft | B350/L-SBGRW/S |
Departure
| Time | 2026-05-04 00:09 |
|---|---|
| Airport | Whitecourt Airport (CYZU) |
Arrival
| Time | 2026-05-04 01:14 |
|---|---|
| Airport | Drumheller Municipal Airport (CEG4) |
| Time | Latitude | Longitude | Altitude | Speed | Heading |
|---|---|---|---|---|---|
| 2026-05-04 00:05 | 54.13837 | -115.77872 | 2562 ft | 0 kts | 124° |
| 2026-05-04 00:08 | 54.13838 | -115.77774 | 2562 ft | 13 kts | 62° |
| 2026-05-04 00:08 | 54.13900 | -115.77648 | 2564 ft | 14 kts | 31° |
| 2026-05-04 00:08 | 54.13968 | -115.77681 | 2565 ft | 13 kts | 299° |
| 2026-05-04 00:09 | 54.14212 | -115.78278 | 2579 ft | 101 kts | 314° |
| 2026-05-04 00:09 | 54.14697 | -115.79388 | 2936 ft | 128 kts | 316° |
| 2026-05-04 00:09 | 54.15197 | -115.80642 | 3695 ft | 131 kts | 306° |
| 2026-05-04 00:09 | 54.15703 | -115.82085 | 4137 ft | 148 kts | 307° |
| 2026-05-04 00:10 | 54.16240 | -115.83667 | 4596 ft | 159 kts | 306° |
| 2026-05-04 00:10 | 54.16807 | -115.85339 | 5050 ft | 166 kts | 305° |
| 2026-05-04 00:10 | 54.17225 | -115.87198 | 5501 ft | 179 kts | 275° |
| 2026-05-04 00:10 | 54.16616 | -115.89164 | 5976 ft | 207 kts | 226° |
| 2026-05-04 00:11 | 54.15198 | -115.89917 | 6431 ft | 226 kts | 180° |
| 2026-05-04 00:11 | 54.13715 | -115.88981 | 6861 ft | 231 kts | 151° |
| 2026-05-04 00:11 | 54.12196 | -115.88145 | 7326 ft | 227 kts | 175° |
| 2026-05-04 00:11 | 54.10628 | -115.87775 | 7759 ft | 227 kts | 176° |
| 2026-05-04 00:12 | 54.09056 | -115.87429 | 8149 ft | 229 kts | 177° |
| 2026-05-04 00:12 | 54.07465 | -115.87088 | 8526 ft | 231 kts | 178° |
| 2026-05-04 00:12 | 54.05873 | -115.86615 | 8928 ft | 235 kts | 171° |
| 2026-05-04 00:12 | 54.04276 | -115.85973 | 9330 ft | 236 kts | 172° |
| 2026-05-04 00:13 | 54.02664 | -115.85407 | 9725 ft | 237 kts | 173° |
| 2026-05-04 00:13 | 54.01047 | -115.84838 | 10101 ft | 238 kts | 173° |
| 2026-05-04 00:13 | 53.99419 | -115.84233 | 10482 ft | 240 kts | 173° |
| 2026-05-04 00:13 | 53.97783 | -115.83650 | 10848 ft | 241 kts | 174° |
| 2026-05-04 00:14 | 53.96131 | -115.83060 | 11239 ft | 244 kts | 174° |
| 2026-05-04 00:14 | 53.94524 | -115.82478 | 11610 ft | 217 kts | 175° |
| 2026-05-04 00:14 | 53.93031 | -115.81925 | 11998 ft | 224 kts | 176° |
| 2026-05-04 00:14 | 53.91453 | -115.81380 | 12389 ft | 231 kts | 176° |
| 2026-05-04 00:15 | 53.89854 | -115.80814 | 12794 ft | 238 kts | 175° |
| 2026-05-04 00:15 | 53.88218 | -115.80216 | 13165 ft | 243 kts | 176° |
| 2026-05-04 00:15 | 53.86545 | -115.79615 | 13548 ft | 248 kts | 176° |
| 2026-05-04 00:15 | 53.84838 | -115.79010 | 13918 ft | 253 kts | 176° |
| 2026-05-04 00:16 | 53.83104 | -115.78388 | 14264 ft | 256 kts | 176° |
| 2026-05-04 00:16 | 53.81354 | -115.77758 | 14619 ft | 258 kts | 176° |
| 2026-05-04 00:16 | 53.79589 | -115.77131 | 14977 ft | 259 kts | 176° |
| 2026-05-04 00:16 | 53.77819 | -115.76497 | 15346 ft | 261 kts | 176° |
| 2026-05-04 00:17 | 53.76063 | -115.75871 | 15710 ft | 262 kts | 176° |
| 2026-05-04 00:17 | 53.74255 | -115.75229 | 16094 ft | 263 kts | 176° |
| 2026-05-04 00:17 | 53.72487 | -115.74599 | 16468 ft | 264 kts | 176° |
| 2026-05-04 00:17 | 53.70689 | -115.73958 | 16846 ft | 264 kts | 176° |
| 2026-05-04 00:18 | 53.68866 | -115.73312 | 17243 ft | 265 kts | 177° |
| 2026-05-04 00:18 | 53.67083 | -115.72680 | 17635 ft | 266 kts | 176° |
| 2026-05-04 00:18 | 53.65273 | -115.72037 | 18034 ft | 266 kts | 176° |
| 2026-05-04 00:18 | 53.63456 | -115.71393 | 18418 ft | 267 kts | 177° |
| 2026-05-04 00:19 | 53.61641 | -115.70751 | 18768 ft | 267 kts | 177° |
| 2026-05-04 00:19 | 53.59813 | -115.70105 | 19122 ft | 268 kts | 177° |
| 2026-05-04 00:19 | 53.57986 | -115.69459 | 19483 ft | 269 kts | 176° |
| 2026-05-04 00:19 | 53.56147 | -115.68810 | 19843 ft | 270 kts | 176° |
| 2026-05-04 00:20 | 53.54306 | -115.68160 | 20210 ft | 271 kts | 176° |
| 2026-05-04 00:20 | 53.52456 | -115.67508 | 20579 ft | 272 kts | 176° |
| 2026-05-04 00:20 | 53.50604 | -115.66857 | 20957 ft | 272 kts | 176° |
| 2026-05-04 00:20 | 53.48746 | -115.66203 | 21332 ft | 273 kts | 176° |
| 2026-05-04 00:21 | 53.46888 | -115.65549 | 21720 ft | 274 kts | 176° |
| 2026-05-04 00:21 | 53.45021 | -115.64893 | 22110 ft | 274 kts | 176° |
| 2026-05-04 00:21 | 53.43146 | -115.64237 | 22502 ft | 275 kts | 176° |
| 2026-05-04 00:21 | 53.41271 | -115.63579 | 22905 ft | 276 kts | 176° |
| 2026-05-04 00:22 | 53.39394 | -115.62922 | 23311 ft | 276 kts | 176° |
| 2026-05-04 00:22 | 53.37507 | -115.62261 | 23695 ft | 277 kts | 176° |
| 2026-05-04 00:22 | 53.35621 | -115.61601 | 24034 ft | 277 kts | 176° |
| 2026-05-04 00:22 | 53.33734 | -115.60942 | 24383 ft | 277 kts | 176° |
| 2026-05-04 00:23 | 53.31848 | -115.60285 | 24736 ft | 277 kts | 176° |
| 2026-05-04 00:23 | 53.29965 | -115.59628 | 25091 ft | 276 kts | 176° |
| 2026-05-04 00:23 | 53.28082 | -115.58973 | 25461 ft | 275 kts | 176° |
| 2026-05-04 00:23 | 53.26210 | -115.58321 | 25818 ft | 274 kts | 177° |
| 2026-05-04 00:24 | 53.24346 | -115.57672 | 26186 ft | 273 kts | 177° |
| 2026-05-04 00:24 | 53.22492 | -115.57027 | 26556 ft | 272 kts | 177° |
| 2026-05-04 00:24 | 53.20625 | -115.56384 | 26795 ft | 278 kts | 177° |
| 2026-05-04 00:24 | 53.18722 | -115.55729 | 26894 ft | 288 kts | 176° |
| 2026-05-04 00:25 | 53.16717 | -115.55029 | 26942 ft | 299 kts | 176° |
| 2026-05-04 00:25 | 53.14644 | -115.54311 | 26961 ft | 309 kts | 175° |
| 2026-05-04 00:25 | 53.12504 | -115.53569 | 26970 ft | 317 kts | 175° |
| 2026-05-04 00:25 | 53.10326 | -115.52815 | 26969 ft | 323 kts | 175° |
| 2026-05-04 00:26 | 53.08105 | -115.52049 | 26976 ft | 328 kts | 175° |
| 2026-05-04 00:26 | 53.05848 | -115.51271 | 26976 ft | 333 kts | 175° |
| 2026-05-04 00:26 | 53.03570 | -115.50486 | 26972 ft | 336 kts | 175° |
| 2026-05-04 00:26 | 53.01244 | -115.49686 | 26967 ft | 338 kts | 175° |
| 2026-05-04 00:27 | 52.98932 | -115.48892 | 26972 ft | 340 kts | 175° |
| 2026-05-04 00:27 | 52.96636 | -115.48105 | 26964 ft | 341 kts | 175° |
| 2026-05-04 00:27 | 52.94275 | -115.47294 | 26960 ft | 342 kts | 175° |
| 2026-05-04 00:27 | 52.91974 | -115.46508 | 26963 ft | 342 kts | 175° |
| 2026-05-04 00:28 | 52.89639 | -115.45709 | 26963 ft | 343 kts | 175° |
| 2026-05-04 00:28 | 52.87295 | -115.44907 | 26961 ft | 343 kts | 175° |
| 2026-05-04 00:28 | 52.84951 | -115.44108 | 26959 ft | 344 kts | 175° |
| 2026-05-04 00:28 | 52.82605 | -115.43308 | 26957 ft | 344 kts | 175° |
| 2026-05-04 00:29 | 52.80262 | -115.42510 | 26955 ft | 344 kts | 175° |
| 2026-05-04 00:29 | 52.77923 | -115.41714 | 26955 ft | 344 kts | 175° |
| 2026-05-04 00:29 | 52.75568 | -115.40914 | 26951 ft | 344 kts | 175° |
| 2026-05-04 00:29 | 52.73226 | -115.40119 | 26949 ft | 343 kts | 175° |
| 2026-05-04 00:30 | 52.70903 | -115.39333 | 26949 ft | 338 kts | 175° |
| 2026-05-04 00:30 | 52.68612 | -115.38553 | 26946 ft | 334 kts | 175° |
| 2026-05-04 00:30 | 52.67080 | -115.38035 | 26941 ft | 332 kts | 175° |
| 2026-05-04 00:30 | 52.64818 | -115.37272 | 26943 ft | 329 kts | 175° |
| 2026-05-04 00:31 | 52.62583 | -115.36517 | 26941 ft | 327 kts | 175° |
| 2026-05-04 00:31 | 52.60356 | -115.35766 | 26940 ft | 326 kts | 175° |
| 2026-05-04 00:31 | 52.58140 | -115.35020 | 26949 ft | 324 kts | 175° |
| 2026-05-04 00:31 | 52.55934 | -115.34278 | 26944 ft | 323 kts | 175° |
| 2026-05-04 00:32 | 52.53731 | -115.33536 | 26933 ft | 322 kts | 175° |
| 2026-05-04 00:32 | 52.51544 | -115.32675 | 26944 ft | 326 kts | 166° |
| 2026-05-04 00:32 | 52.49478 | -115.31097 | 26932 ft | 330 kts | 150° |
| 2026-05-04 00:32 | 52.47658 | -115.28807 | 26930 ft | 330 kts | 135° |
| 2026-05-04 00:33 | 52.46187 | -115.25943 | 26930 ft | 327 kts | 120° |
| 2026-05-04 00:33 | 52.44568 | -115.19159 | 26929 ft | 311 kts | 89° |
| 2026-05-04 00:33 | 52.44472 | -115.15676 | 26929 ft | 303 kts | 79° |
| 2026-05-04 00:34 | 52.44471 | -115.12223 | 26927 ft | 305 kts | 81° |
| 2026-05-04 00:34 | 52.44360 | -115.08737 | 26934 ft | 308 kts | 85° |
| 2026-05-04 00:34 | 52.44111 | -115.05228 | 26926 ft | 311 kts | 89° |
| 2026-05-04 00:34 | 52.43738 | -115.01715 | 26934 ft | 313 kts | 92° |
| 2026-05-04 00:35 | 52.43300 | -114.98208 | 26925 ft | 315 kts | 94° |
| 2026-05-04 00:35 | 52.42833 | -114.94700 | 26924 ft | 315 kts | 94° |
| 2026-05-04 00:35 | 52.42231 | -114.91171 | 26925 ft | 320 kts | 102° |
| 2026-05-04 00:35 | 52.41498 | -114.87731 | 26922 ft | 320 kts | 100° |
| 2026-05-04 00:36 | 52.40842 | -114.84249 | 26919 ft | 319 kts | 100° |
| 2026-05-04 00:36 | 52.40155 | -114.80830 | 26923 ft | 320 kts | 101° |
| 2026-05-04 00:36 | 52.39461 | -114.77324 | 26923 ft | 320 kts | 100° |
| 2026-05-04 00:36 | 52.38777 | -114.73848 | 26922 ft | 320 kts | 101° |
| 2026-05-04 00:37 | 52.38083 | -114.70381 | 26930 ft | 320 kts | 101° |
| 2026-05-04 00:37 | 52.37396 | -114.66915 | 26934 ft | 321 kts | 101° |
| 2026-05-04 00:37 | 52.36703 | -114.63439 | 26930 ft | 321 kts | 101° |
| 2026-05-04 00:37 | 52.36008 | -114.59974 | 26933 ft | 321 kts | 101° |
| 2026-05-04 00:38 | 52.35315 | -114.56502 | 26938 ft | 321 kts | 101° |
| 2026-05-04 00:38 | 52.34618 | -114.53030 | 26943 ft | 322 kts | 101° |
| 2026-05-04 00:38 | 52.33917 | -114.49539 | 26940 ft | 323 kts | 101° |
| 2026-05-04 00:38 | 52.33206 | -114.46007 | 26937 ft | 323 kts | 101° |
| 2026-05-04 00:39 | 52.32502 | -114.42515 | 26938 ft | 323 kts | 101° |
| 2026-05-04 00:39 | 52.31796 | -114.39020 | 26937 ft | 324 kts | 101° |
| 2026-05-04 00:39 | 52.31098 | -114.35571 | 26940 ft | 324 kts | 101° |
| 2026-05-04 00:39 | 52.30380 | -114.32027 | 26942 ft | 324 kts | 101° |
| 2026-05-04 00:40 | 52.29671 | -114.28534 | 26940 ft | 324 kts | 101° |
| 2026-05-04 00:40 | 52.28960 | -114.25043 | 26940 ft | 323 kts | 101° |
| 2026-05-04 00:40 | 52.28257 | -114.21620 | 26935 ft | 312 kts | 100° |
| 2026-05-04 00:40 | 52.27585 | -114.18288 | 26926 ft | 304 kts | 98° |
| 2026-05-04 00:41 | 52.26922 | -114.15055 | 26907 ft | 296 kts | 99° |
| 2026-05-04 00:41 | 52.26260 | -114.11903 | 27221 ft | 272 kts | 101° |
| 2026-05-04 00:41 | 52.25623 | -114.08962 | 27063 ft | 276 kts | 97° |
| 2026-05-04 00:41 | 52.25085 | -114.05932 | 26921 ft | 280 kts | 97° |
| 2026-05-04 00:42 | 52.24443 | -114.02892 | 26794 ft | 286 kts | 101° |
| 2026-05-04 00:42 | 52.23791 | -113.99814 | 26675 ft | 287 kts | 99° |
| 2026-05-04 00:42 | 52.23156 | -113.96657 | 26535 ft | 293 kts | 100° |
| 2026-05-04 00:42 | 52.22482 | -113.93464 | 26422 ft | 300 kts | 100° |
| 2026-05-04 00:43 | 52.21808 | -113.90220 | 26303 ft | 304 kts | 100° |
| 2026-05-04 00:43 | 52.21130 | -113.86927 | 26176 ft | 309 kts | 100° |
| 2026-05-04 00:43 | 52.20432 | -113.83593 | 26054 ft | 312 kts | 101° |
| 2026-05-04 00:43 | 52.19734 | -113.80235 | 25933 ft | 314 kts | 101° |
| 2026-05-04 00:44 | 52.19029 | -113.76850 | 25809 ft | 317 kts | 101° |
| 2026-05-04 00:44 | 52.18315 | -113.73431 | 25697 ft | 321 kts | 101° |
| 2026-05-04 00:44 | 52.17588 | -113.69947 | 25578 ft | 328 kts | 101° |
| 2026-05-04 00:44 | 52.16841 | -113.66400 | 25458 ft | 333 kts | 101° |
| 2026-05-04 00:45 | 52.16089 | -113.62808 | 25337 ft | 337 kts | 101° |
| 2026-05-04 00:45 | 52.15325 | -113.59179 | 25215 ft | 340 kts | 102° |
| 2026-05-04 00:45 | 52.14556 | -113.55527 | 25092 ft | 342 kts | 102° |
| 2026-05-04 00:45 | 52.13781 | -113.51853 | 24976 ft | 341 kts | 102° |
| 2026-05-04 00:46 | 52.13026 | -113.48335 | 24850 ft | 318 kts | 101° |
| 2026-05-04 00:46 | 52.12361 | -113.44973 | 24485 ft | 305 kts | 94° |
| 2026-05-04 00:46 | 52.12090 | -113.41684 | 24135 ft | 283 kts | 77° |
| 2026-05-04 00:46 | 52.12293 | -113.38643 | 23786 ft | 259 kts | 59° |
| 2026-05-04 00:47 | 52.12912 | -113.36066 | 23434 ft | 232 kts | 41° |
| 2026-05-04 00:47 | 52.13852 | -113.34151 | 23029 ft | 203 kts | 21° |
| 2026-05-04 00:47 | 52.14970 | -113.33074 | 22628 ft | 173 kts | 360° |
| 2026-05-04 00:47 | 52.16071 | -113.32938 | 22233 ft | 149 kts | 336° |
| 2026-05-04 00:48 | 52.16926 | -113.33715 | 21811 ft | 140 kts | 312° |
| 2026-05-04 00:48 | 52.17300 | -113.35170 | 21504 ft | 146 kts | 286° |
| 2026-05-04 00:48 | 52.17058 | -113.36876 | 21200 ft | 173 kts | 260° |
| 2026-05-04 00:48 | 52.16191 | -113.38555 | 20898 ft | 215 kts | 237° |
| 2026-05-04 00:49 | 52.14792 | -113.39885 | 20565 ft | 251 kts | 217° |
| 2026-05-04 00:49 | 52.13001 | -113.40617 | 20189 ft | 280 kts | 199° |
| 2026-05-04 00:49 | 52.10975 | -113.40595 | 19808 ft | 302 kts | 182° |
| 2026-05-04 00:49 | 52.08884 | -113.39754 | 19440 ft | 317 kts | 166° |
| 2026-05-04 00:50 | 52.06763 | -113.38247 | 19061 ft | 323 kts | 160° |
| 2026-05-04 00:50 | 52.05366 | -113.37152 | 18817 ft | 324 kts | 159° |
| 2026-05-04 00:50 | 52.03253 | -113.35465 | 18442 ft | 325 kts | 159° |
| 2026-05-04 00:50 | 52.01109 | -113.33751 | 18050 ft | 324 kts | 162° |
| 2026-05-04 00:51 | 51.98975 | -113.32572 | 17640 ft | 313 kts | 176° |
| 2026-05-04 00:51 | 51.96941 | -113.32848 | 17255 ft | 282 kts | 211° |
| 2026-05-04 00:51 | 51.95205 | -113.34105 | 16856 ft | 258 kts | 233° |
| 2026-05-04 00:51 | 51.94327 | -113.36299 | 16488 ft | 222 kts | 271° |
| 2026-05-04 00:52 | 51.94654 | -113.38611 | 16119 ft | 217 kts | 309° |
| 2026-05-04 00:52 | 51.96010 | -113.39776 | 15752 ft | 241 kts | 347° |
| 2026-05-04 00:52 | 51.97738 | -113.39077 | 15365 ft | 274 kts | 15° |
| 2026-05-04 00:52 | 51.99395 | -113.37828 | 15110 ft | 251 kts | 7° |
| 2026-05-04 00:53 | 52.01010 | -113.37242 | 15013 ft | 225 kts | 356° |
| 2026-05-04 00:53 | 52.02518 | -113.37096 | 14966 ft | 202 kts | 345° |
| 2026-05-04 00:53 | 52.03859 | -113.37322 | 14950 ft | 189 kts | 345° |
| 2026-05-04 00:53 | 52.05140 | -113.37485 | 14935 ft | 181 kts | 344° |
| 2026-05-04 00:54 | 52.06365 | -113.37694 | 14933 ft | 171 kts | 339° |
| 2026-05-04 00:54 | 52.07502 | -113.38100 | 14917 ft | 165 kts | 337° |
| 2026-05-04 00:54 | 52.08649 | -113.38484 | 14705 ft | 172 kts | 339° |
| 2026-05-04 00:54 | 52.09845 | -113.38840 | 14467 ft | 177 kts | 341° |
| 2026-05-04 00:55 | 52.11104 | -113.38976 | 14233 ft | 194 kts | 359° |
| 2026-05-04 00:55 | 52.12296 | -113.37586 | 14008 ft | 238 kts | 43° |
| 2026-05-04 00:55 | 52.12778 | -113.34835 | 13777 ft | 273 kts | 82° |
| 2026-05-04 00:55 | 52.12241 | -113.31798 | 13507 ft | 289 kts | 120° |
| 2026-05-04 00:56 | 52.10818 | -113.29530 | 13241 ft | 286 kts | 156° |
| 2026-05-04 00:56 | 52.08970 | -113.28761 | 12978 ft | 266 kts | 193° |
| 2026-05-04 00:56 | 52.07169 | -113.29116 | 12702 ft | 259 kts | 201° |
| 2026-05-04 00:56 | 52.05399 | -113.29642 | 12431 ft | 258 kts | 202° |
| 2026-05-04 00:57 | 52.03641 | -113.30197 | 12152 ft | 257 kts | 202° |
| 2026-05-04 00:57 | 52.01890 | -113.30749 | 11898 ft | 256 kts | 201° |
| 2026-05-04 00:57 | 52.00090 | -113.31010 | 11637 ft | 265 kts | 186° |
| 2026-05-04 00:57 | 51.98264 | -113.30650 | 11386 ft | 270 kts | 176° |
| 2026-05-04 00:58 | 51.96423 | -113.29984 | 11134 ft | 271 kts | 172° |
| 2026-05-04 00:58 | 51.94649 | -113.29083 | 10881 ft | 264 kts | 163° |
| 2026-05-04 00:58 | 51.92984 | -113.27952 | 10634 ft | 255 kts | 162° |
| 2026-05-04 00:58 | 51.91306 | -113.26936 | 10388 ft | 259 kts | 165° |
| 2026-05-04 00:59 | 51.89601 | -113.25903 | 10136 ft | 262 kts | 163° |
| 2026-05-04 00:59 | 51.87896 | -113.24833 | 9890 ft | 263 kts | 162° |
| 2026-05-04 00:59 | 51.86182 | -113.23783 | 9637 ft | 264 kts | 162° |
| 2026-05-04 00:59 | 51.84469 | -113.22731 | 9380 ft | 264 kts | 162° |
| 2026-05-04 01:00 | 51.82753 | -113.21669 | 9129 ft | 263 kts | 162° |
| 2026-05-04 01:00 | 51.81102 | -113.20652 | 9009 ft | 246 kts | 162° |
| 2026-05-04 01:00 | 51.79580 | -113.19717 | 8942 ft | 222 kts | 162° |
| 2026-05-04 01:00 | 51.78166 | -113.18840 | 8808 ft | 218 kts | 162° |
| 2026-05-04 01:01 | 51.76746 | -113.17982 | 8547 ft | 223 kts | 162° |
| 2026-05-04 01:01 | 51.75287 | -113.17090 | 8298 ft | 225 kts | 161° |
| 2026-05-04 01:01 | 51.73812 | -113.16176 | 8015 ft | 228 kts | 160° |
| 2026-05-04 01:01 | 51.72301 | -113.15252 | 7635 ft | 239 kts | 160° |
| 2026-05-04 01:02 | 51.70706 | -113.14280 | 7266 ft | 251 kts | 160° |
| 2026-05-04 01:02 | 51.69041 | -113.13262 | 6914 ft | 260 kts | 159° |
| 2026-05-04 01:02 | 51.67337 | -113.12216 | 6548 ft | 264 kts | 159° |
| 2026-05-04 01:02 | 51.65607 | -113.11160 | 6176 ft | 267 kts | 159° |
| 2026-05-04 01:03 | 51.63861 | -113.10098 | 5782 ft | 268 kts | 158° |
| 2026-05-04 01:03 | 51.62123 | -113.09029 | 5399 ft | 268 kts | 158° |
| 2026-05-04 01:03 | 51.60371 | -113.07960 | 5032 ft | 268 kts | 158° |
| 2026-05-04 01:03 | 51.58628 | -113.06910 | 4639 ft | 266 kts | 158° |
| 2026-05-04 01:04 | 51.56920 | -113.05858 | 4292 ft | 255 kts | 159° |
| 2026-05-04 01:04 | 51.55307 | -113.04898 | 3868 ft | 239 kts | 156° |
| 2026-05-04 01:04 | 51.53800 | -113.03947 | 3504 ft | 226 kts | 156° |
| 2026-05-04 01:04 | 51.52368 | -113.03086 | 3301 ft | 212 kts | 158° |
| 2026-05-04 01:05 | 51.51030 | -113.02296 | 3184 ft | 196 kts | 157° |
| 2026-05-04 01:05 | 51.49825 | -113.01540 | 3114 ft | 179 kts | 157° |
| 2026-05-04 01:05 | 51.48698 | -113.00872 | 3122 ft | 163 kts | 156° |
| 2026-05-04 01:05 | 51.47545 | -113.00151 | 3408 ft | 185 kts | 154° |
| 2026-05-04 01:06 | 51.46393 | -112.99396 | 4211 ft | 179 kts | 155° |
| 2026-05-04 01:06 | 51.45190 | -112.98625 | 4700 ft | 191 kts | 158° |
| 2026-05-04 01:06 | 51.43897 | -112.97717 | 5113 ft | 204 kts | 146° |
| 2026-05-04 01:06 | 51.42661 | -112.96344 | 5222 ft | 223 kts | 137° |
| 2026-05-04 01:07 | 51.41289 | -112.95560 | 5466 ft | 222 kts | 182° |
| 2026-05-04 01:07 | 51.39799 | -112.95404 | 5929 ft | 219 kts | 157° |
| 2026-05-04 01:07 | 51.38619 | -112.93845 | 5990 ft | 233 kts | 125° |
| 2026-05-04 01:07 | 51.37600 | -112.91676 | 5992 ft | 243 kts | 119° |
| 2026-05-04 01:08 | 51.36635 | -112.89435 | 6207 ft | 250 kts | 121° |
| 2026-05-04 01:08 | 51.35781 | -112.87177 | 6785 ft | 227 kts | 98° |
| 2026-05-04 01:08 | 51.35370 | -112.84732 | 6955 ft | 233 kts | 96° |
| 2026-05-04 01:08 | 51.35013 | -112.82060 | 6796 ft | 251 kts | 94° |
| 2026-05-04 01:09 | 51.34745 | -112.79294 | 6857 ft | 252 kts | 90° |
| 2026-05-04 01:09 | 51.34506 | -112.76453 | 6578 ft | 265 kts | 93° |
| 2026-05-04 01:09 | 51.34311 | -112.73650 | 6420 ft | 240 kts | 84° |
| 2026-05-04 01:09 | 51.34728 | -112.71426 | 6111 ft | 206 kts | 14° |
| 2026-05-04 01:10 | 51.36206 | -112.71353 | 5810 ft | 220 kts | 352° |
| 2026-05-04 01:10 | 51.37520 | -112.72529 | 5528 ft | 212 kts | 326° |
| 2026-05-04 01:10 | 51.38595 | -112.73876 | 5828 ft | 181 kts | 320° |
| 2026-05-04 01:10 | 51.39070 | -112.75839 | 4962 ft | 218 kts | 285° |
| 2026-05-04 01:11 | 51.39861 | -112.77566 | 4995 ft | 186 kts | 343° |
| 2026-05-04 01:11 | 51.40995 | -112.77093 | 4968 ft | 174 kts | 29° |
| 2026-05-04 01:11 | 51.42053 | -112.75928 | 4502 ft | 189 kts | 27° |
| 2026-05-04 01:11 | 51.43224 | -112.75019 | 3862 ft | 188 kts | 12° |
| 2026-05-04 01:12 | 51.44510 | -112.74841 | 3238 ft | 184 kts | 1° |
| 2026-05-04 01:12 | 51.45717 | -112.74874 | 3138 ft | 154 kts | 347° |
| 2026-05-04 01:12 | 51.46616 | -112.74871 | 3118 ft | 110 kts | 358° |
| 2026-05-04 01:12 | 51.47311 | -112.74873 | 2922 ft | 89 kts | 360° |
| 2026-05-04 01:13 | 51.47893 | -112.74863 | 2900 ft | 84 kts | 360° |
| 2026-05-04 01:13 | 51.48430 | -112.74862 | 2768 ft | 75 kts | 359° |
| 2026-05-04 01:13 | 51.48937 | -112.74868 | 2649 ft | 74 kts | 0° |
| 2026-05-04 01:13 | 51.49428 | -112.74865 | 2591 ft | 64 kts | 360° |
| 2026-05-04 01:14 | 51.49694 | -112.74860 | 2596 ft | 30 kts | 7° |
| 2026-05-04 01:14 | 51.49742 | -112.74936 | 2601 ft | 23 kts | 202° |
| 2026-05-04 01:14 | 51.49413 | -112.74859 | 2593 ft | 90 kts | 182° |
| 2026-05-04 01:14 | 51.48582 | -112.74861 | 2630 ft | 147 kts | 181° |
| 2026-05-04 01:15 | 51.47591 | -112.74505 | 3057 ft | 159 kts | 129° |
| 2026-05-04 01:15 | 51.47104 | -112.72883 | 3183 ft | 170 kts | 93° |
| 2026-05-04 01:15 | 51.46412 | -112.71312 | 3639 ft | 200 kts | 156° |
| 2026-05-04 01:15 | 51.45261 | -112.71959 | 3804 ft | 192 kts | 271° |
| 2026-05-04 01:16 | 51.45918 | -112.73177 | 3636 ft | 146 kts | 350° |
| 2026-05-04 01:16 | 51.46786 | -112.73641 | 3519 ft | 127 kts | 337° |
| 2026-05-04 01:16 | 51.47473 | -112.74403 | 3174 ft | 111 kts | 332° |
| 2026-05-04 01:16 | 51.48114 | -112.74817 | 2880 ft | 94 kts | 360° |
| 2026-05-04 01:17 | 51.48740 | -112.74861 | 2656 ft | 81 kts | 1° |
| 2026-05-04 01:17 | 51.49254 | -112.74863 | 2599 ft | 68 kts | 0° |
| 2026-05-04 01:17 | 51.49671 | -112.74862 | 2601 ft | 58 kts | 359° |
| 2026-05-04 01:17 | 51.50278 | -112.74941 | 2675 ft | 112 kts | 357° |
| 2026-05-04 01:18 | 51.50881 | -112.74972 | 2696 ft | 86 kts | 360° |
| 2026-05-04 01:18 | 51.51517 | -112.75440 | 2725 ft | 139 kts | 320° |
| 2026-05-04 01:18 | 51.52179 | -112.76496 | 3395 ft | 137 kts | 322° |
| 2026-05-04 01:18 | 51.52899 | -112.77649 | 3689 ft | 155 kts | 327° |
| 2026-05-04 01:19 | 51.53691 | -112.78726 | 4348 ft | 149 kts | 323° |
| 2026-05-04 01:19 | 51.54199 | -112.80575 | 3786 ft | 220 kts | 282° |
| 2026-05-04 01:19 | 51.54080 | -112.83106 | 3983 ft | 217 kts | 284° |
| 2026-05-04 01:19 | 51.54349 | -112.85518 | 3747 ft | 228 kts | 295° |
| 2026-05-04 01:20 | 51.54998 | -112.87760 | 3027 ft | 209 kts | 314° |
| 2026-05-04 01:20 | 51.56066 | -112.89143 | 2680 ft | 199 kts | 349° |
| 2026-05-04 01:20 | 51.57454 | -112.88988 | 2643 ft | 211 kts | 9° |
| 2026-05-04 01:20 | 51.58931 | -112.88473 | 2456 ft | 222 kts | 14° |
| 2026-05-04 01:21 | 51.60289 | -112.87906 | 2501 ft | 180 kts | 31° |
| 2026-05-04 01:21 | 51.61323 | -112.87712 | 2343 ft | 149 kts | 341° |
| 2026-05-04 01:21 | 51.62182 | -112.88543 | 2325 ft | 139 kts | 330° |
| 2026-05-04 01:21 | 51.62929 | -112.89566 | 2335 ft | 140 kts | 338° |
| 2026-05-04 01:22 | 51.63791 | -112.89512 | 2344 ft | 127 kts | 354° |
| 2026-05-04 01:22 | 51.64650 | -112.89824 | 2311 ft | 123 kts | 348° |
| 2026-05-04 01:22 | 51.65287 | -112.90823 | 2321 ft | 129 kts | 329° |
| 2026-05-04 01:22 | 51.66156 | -112.91364 | 2359 ft | 134 kts | 21° |
| 2026-05-04 01:23 | 51.67059 | -112.91208 | 2351 ft | 135 kts | 2° |
| 2026-05-04 01:23 | 51.67710 | -112.91540 | 3269 ft | 54 kts | 332° |
| 2026-05-04 01:23 | 51.68101 | -112.92306 | 2380 ft | 131 kts | 339° |
| 2026-05-04 01:23 | 51.68908 | -112.91848 | 2434 ft | 143 kts | 24° |
| 2026-05-04 01:24 | 51.69771 | -112.91501 | 2994 ft | 143 kts | 338° |
| 2026-05-04 01:24 | 51.70507 | -112.93024 | 2473 ft | 207 kts | 295° |
| 2026-05-04 01:24 | 51.71004 | -112.95234 | 2750 ft | 206 kts | 298° |
| 2026-05-04 01:24 | 51.71271 | -112.97565 | 2801 ft | 224 kts | 282° |
| 2026-05-04 01:25 | 51.71354 | -113.00070 | 3171 ft | 209 kts | 279° |
| 2026-05-04 01:25 | 51.71349 | -113.02102 | 4524 ft | 171 kts | 276° |
| 2026-05-04 01:25 | 51.70880 | -113.04261 | 3924 ft | 242 kts | 248° |
| 2026-05-04 01:25 | 51.70168 | -113.06644 | 3924 ft | 219 kts | 263° |
| 2026-05-04 01:26 | 51.69795 | -113.08889 | 3964 ft | 195 kts | 270° |
| 2026-05-04 01:26 | 51.69561 | -113.10973 | 4125 ft | 185 kts | 264° |
| 2026-05-04 01:26 | 51.69206 | -113.13025 | 3889 ft | 189 kts | 268° |
| 2026-05-04 01:26 | 51.68865 | -113.14997 | 3777 ft | 180 kts | 262° |
| 2026-05-04 01:27 | 51.68563 | -113.16725 | 3763 ft | 138 kts | 273° |
| 2026-05-04 01:27 | 51.68533 | -113.18110 | 3620 ft | 113 kts | 286° |
| 2026-05-04 01:27 | 51.68740 | -113.19266 | 3200 ft | 102 kts | 304° |
| 2026-05-04 01:27 | 51.69168 | -113.20080 | 3009 ft | 85 kts | 321° |
| 2026-05-04 01:28 | 51.69506 | -113.20696 | 2973 ft | 62 kts | 328° |
| 2026-05-04 01:28 | 51.69802 | -113.21227 | 3000 ft | 91 kts | 318° |
| 2026-05-04 01:28 | 51.70234 | -113.22293 | 3070 ft | 151 kts | 273° |
| 2026-05-04 01:28 | 51.69312 | -113.23421 | 3322 ft | 190 kts | 188° |
| 2026-05-04 01:29 | 51.68005 | -113.23292 | 3675 ft | 211 kts | 141° |
| 2026-05-04 01:29 | 51.67247 | -113.21438 | 3957 ft | 189 kts | 91° |
| 2026-05-04 01:29 | 51.67323 | -113.19796 | 4097 ft | 126 kts | 59° |
| 2026-05-04 01:29 | 51.67801 | -113.18733 | 3877 ft | 112 kts | 30° |
| 2026-05-04 01:30 | 51.68526 | -113.18709 | 3638 ft | 106 kts | 327° |
| 2026-05-04 01:30 | 51.68993 | -113.19713 | 3038 ft | 101 kts | 315° |
| 2026-05-04 01:30 | 51.69375 | -113.20462 | 2973 ft | 77 kts | 327° |
| 2026-05-04 01:30 | 51.69672 | -113.20967 | 2976 ft | 37 kts | 310° |
| 2026-05-04 01:31 | 51.69802 | -113.21210 | 2977 ft | 37 kts | 303° |
| 2026-05-04 01:31 | 51.69898 | -113.21405 | 2980 ft | 13 kts | 291° |
| 2026-05-04 01:31 | 51.69849 | -113.21524 | 2980 ft | 7 kts | 242° |
| 2026-05-04 01:31 | 51.69843 | -113.21542 | 2980 ft | 0 kts | 226° |